sensor_id;sensor_type;location;lat;lon;timestamp;P1;durP1;ratioP1;P2;durP2;ratioP2
19219;SDS011;9744;49.364;7.484;2024-03-08T00:02:19;32.92;;;17.63;;
19219;SDS011;9744;49.364;7.484;2024-03-08T00:04:51;33.63;;;17.02;;
19219;SDS011;9744;49.364;7.484;2024-03-08T00:07:24;37.30;;;17.77;;
19219;SDS011;9744;49.364;7.484;2024-03-08T00:09:53;33.88;;;18.50;;
19219;SDS011;9744;49.364;7.484;2024-03-08T00:12:25;34.83;;;17.77;;
19219;SDS011;9744;49.364;7.484;2024-03-08T00:15:05;37.28;;;17.85;;
19219;SDS011;9744;49.364;7.484;2024-03-08T00:17:40;39.53;;;19.25;;
19219;SDS011;9744;49.364;7.484;2024-03-08T00:20:49;37.35;;;18.25;;
19219;SDS011;9744;49.364;7.484;2024-03-08T00:23:36;36.83;;;18.80;;
19219;SDS011;9744;49.364;7.484;2024-03-08T00:26:09;37.20;;;18.55;;
19219;SDS011;9744;49.364;7.484;2024-03-08T00:29:04;35.17;;;18.92;;
19219;SDS011;9744;49.364;7.484;2024-03-08T00:36:11;36.13;;;18.90;;
19219;SDS011;9744;49.364;7.484;2024-03-08T00:38:41;38.35;;;19.27;;
19219;SDS011;9744;49.364;7.484;2024-03-08T00:41:16;34.42;;;18.20;;
19219;SDS011;9744;49.364;7.484;2024-03-08T00:44:19;35.22;;;18.48;;
19219;SDS011;9744;49.364;7.484;2024-03-08T00:48:08;38.25;;;18.92;;
19219;SDS011;9744;49.364;7.484;2024-03-08T00:50:37;38.17;;;19.20;;
19219;SDS011;9744;49.364;7.484;2024-03-08T00:53:07;42.17;;;18.73;;
19219;SDS011;9744;49.364;7.484;2024-03-08T00:56:17;38.70;;;18.77;;
19219;SDS011;9744;49.364;7.484;2024-03-08T00:59:16;38.33;;;19.48;;
19219;SDS011;9744;49.364;7.484;2024-03-08T01:01:49;35.92;;;18.27;;
19219;SDS011;9744;49.364;7.484;2024-03-08T01:38:04;34.80;;;19.30;;
19219;SDS011;9744;49.364;7.484;2024-03-08T01:40:41;36.92;;;19.38;;
19219;SDS011;9744;49.364;7.484;2024-03-08T01:43:18;39.95;;;20.48;;
19219;SDS011;9744;49.364;7.484;2024-03-08T01:46:29;38.50;;;20.13;;
19219;SDS011;9744;49.364;7.484;2024-03-08T01:48:59;41.45;;;19.85;;
19219;SDS011;9744;49.364;7.484;2024-03-08T01:55:55;35.38;;;18.85;;
19219;SDS011;9744;49.364;7.484;2024-03-08T01:58:42;35.75;;;19.73;;
19219;SDS011;9744;49.364;7.484;2024-03-08T02:01:13;35.50;;;19.77;;
19219;SDS011;9744;49.364;7.484;2024-03-08T02:04:14;39.65;;;20.02;;
19219;SDS011;9744;49.364;7.484;2024-03-08T02:07:09;41.58;;;20.48;;
19219;SDS011;9744;49.364;7.484;2024-03-08T02:09:44;40.78;;;21.30;;
19219;SDS011;9744;49.364;7.484;2024-03-08T02:12:17;39.17;;;20.67;;
19219;SDS011;9744;49.364;7.484;2024-03-08T02:17:42;39.58;;;20.52;;
19219;SDS011;9744;49.364;7.484;2024-03-08T02:20:21;40.17;;;21.23;;
19219;SDS011;9744;49.364;7.484;2024-03-08T02:23:41;39.10;;;19.75;;
19219;SDS011;9744;49.364;7.484;2024-03-08T02:26:41;39.65;;;19.60;;
19219;SDS011;9744;49.364;7.484;2024-03-08T03:16:19;36.90;;;19.55;;
19219;SDS011;9744;49.364;7.484;2024-03-08T03:18:47;38.05;;;19.42;;
19219;SDS011;9744;49.364;7.484;2024-03-08T03:21:16;42.78;;;19.55;;
19219;SDS011;9744;49.364;7.484;2024-03-08T03:23:45;42.47;;;20.50;;
19219;SDS011;9744;49.364;7.484;2024-03-08T03:26:14;40.50;;;19.33;;
19219;SDS011;9744;49.364;7.484;2024-03-08T03:28:43;43.28;;;19.85;;
19219;SDS011;9744;49.364;7.484;2024-03-08T03:31:13;36.78;;;19.67;;
19219;SDS011;9744;49.364;7.484;2024-03-08T03:39:50;40.38;;;19.13;;
19219;SDS011;9744;49.364;7.484;2024-03-08T03:42:20;36.25;;;18.67;;
19219;SDS011;9744;49.364;7.484;2024-03-08T03:44:51;39.70;;;19.38;;
19219;SDS011;9744;49.364;7.484;2024-03-08T03:47:19;39.28;;;19.58;;
19219;SDS011;9744;49.364;7.484;2024-03-08T03:49:51;42.83;;;20.67;;
19219;SDS011;9744;49.364;7.484;2024-03-08T03:52:20;40.58;;;21.55;;
19219;SDS011;9744;49.364;7.484;2024-03-08T03:54:49;37.58;;;19.77;;
19219;SDS011;9744;49.364;7.484;2024-03-08T03:57:19;43.55;;;20.65;;
19219;SDS011;9744;49.364;7.484;2024-03-08T03:59:48;44.50;;;20.33;;
19219;SDS011;9744;49.364;7.484;2024-03-08T04:02:16;43.22;;;21.20;;
19219;SDS011;9744;49.364;7.484;2024-03-08T04:04:47;44.42;;;21.20;;
19219;SDS011;9744;49.364;7.484;2024-03-08T04:07:19;44.45;;;21.40;;
19219;SDS011;9744;49.364;7.484;2024-03-08T04:09:48;42.25;;;19.77;;
19219;SDS011;9744;49.364;7.484;2024-03-08T04:15:14;37.33;;;19.42;;
19219;SDS011;9744;49.364;7.484;2024-03-08T04:17:44;41.80;;;20.95;;
19219;SDS011;9744;49.364;7.484;2024-03-08T04:20:12;40.20;;;20.52;;
19219;SDS011;9744;49.364;7.484;2024-03-08T04:22:41;41.92;;;20.83;;
19219;SDS011;9744;49.364;7.484;2024-03-08T04:25:09;39.75;;;20.77;;
19219;SDS011;9744;49.364;7.484;2024-03-08T04:27:37;51.85;;;25.52;;
19219;SDS011;9744;49.364;7.484;2024-03-08T04:30:06;41.67;;;21.50;;
19219;SDS011;9744;49.364;7.484;2024-03-08T04:32:36;54.25;;;25.23;;
19219;SDS011;9744;49.364;7.484;2024-03-08T04:35:04;43.40;;;21.33;;
19219;SDS011;9744;49.364;7.484;2024-03-08T04:37:32;41.95;;;21.75;;
19219;SDS011;9744;49.364;7.484;2024-03-08T04:40:01;40.35;;;20.98;;
19219;SDS011;9744;49.364;7.484;2024-03-08T04:42:28;42.13;;;19.98;;
19219;SDS011;9744;49.364;7.484;2024-03-08T04:44:59;43.63;;;21.38;;
19219;SDS011;9744;49.364;7.484;2024-03-08T04:47:36;43.17;;;21.75;;
19219;SDS011;9744;49.364;7.484;2024-03-08T04:50:05;79.22;;;36.10;;
19219;SDS011;9744;49.364;7.484;2024-03-08T04:52:35;54.38;;;24.80;;
19219;SDS011;9744;49.364;7.484;2024-03-08T04:55:12;42.90;;;21.77;;
19219;SDS011;9744;49.364;7.484;2024-03-08T04:57:39;38.58;;;20.60;;
19219;SDS011;9744;49.364;7.484;2024-03-08T05:00:08;44.25;;;20.92;;
19219;SDS011;9744;49.364;7.484;2024-03-08T05:02:37;61.78;;;26.65;;
19219;SDS011;9744;49.364;7.484;2024-03-08T05:05:06;58.95;;;27.48;;
19219;SDS011;9744;49.364;7.484;2024-03-08T05:07:37;57.83;;;27.70;;
19219;SDS011;9744;49.364;7.484;2024-03-08T05:10:11;52.90;;;25.50;;
19219;SDS011;9744;49.364;7.484;2024-03-08T05:12:41;44.30;;;23.30;;
19219;SDS011;9744;49.364;7.484;2024-03-08T05:15:09;42.13;;;20.48;;
19219;SDS011;9744;49.364;7.484;2024-03-08T05:17:36;39.42;;;20.58;;
19219;SDS011;9744;49.364;7.484;2024-03-08T05:20:06;38.83;;;19.70;;
19219;SDS011;9744;49.364;7.484;2024-03-08T05:22:38;43.75;;;20.67;;
19219;SDS011;9744;49.364;7.484;2024-03-08T05:25:06;36.70;;;18.77;;
19219;SDS011;9744;49.364;7.484;2024-03-08T05:27:37;40.85;;;20.33;;
19219;SDS011;9744;49.364;7.484;2024-03-08T05:30:05;41.55;;;20.88;;
19219;SDS011;9744;49.364;7.484;2024-03-08T05:36:13;38.63;;;20.20;;
19219;SDS011;9744;49.364;7.484;2024-03-08T05:38:42;44.78;;;21.55;;
19219;SDS011;9744;49.364;7.484;2024-03-08T05:41:09;43.40;;;20.33;;
19219;SDS011;9744;49.364;7.484;2024-03-08T05:43:40;43.75;;;20.73;;
19219;SDS011;9744;49.364;7.484;2024-03-08T05:46:08;41.47;;;20.45;;
19219;SDS011;9744;49.364;7.484;2024-03-08T05:48:37;59.67;;;26.77;;
19219;SDS011;9744;49.364;7.484;2024-03-08T05:51:06;45.28;;;22.63;;
19219;SDS011;9744;49.364;7.484;2024-03-08T05:53:34;43.40;;;21.55;;
19219;SDS011;9744;49.364;7.484;2024-03-08T05:56:03;46.70;;;24.95;;
19219;SDS011;9744;49.364;7.484;2024-03-08T05:58:31;60.97;;;31.45;;
19219;SDS011;9744;49.364;7.484;2024-03-08T06:01:00;46.60;;;23.77;;
19219;SDS011;9744;49.364;7.484;2024-03-08T06:03:28;45.85;;;20.55;;
19219;SDS011;9744;49.364;7.484;2024-03-08T06:05:56;42.63;;;22.33;;
19219;SDS011;9744;49.364;7.484;2024-03-08T06:08:26;49.58;;;30.02;;
19219;SDS011;9744;49.364;7.484;2024-03-08T06:10:55;127.70;;;74.63;;
19219;SDS011;9744;49.364;7.484;2024-03-08T06:13:24;68.30;;;38.92;;
19219;SDS011;9744;49.364;7.484;2024-03-08T06:15:52;62.20;;;34.80;;
19219;SDS011;9744;49.364;7.484;2024-03-08T06:18:22;57.17;;;32.42;;
19219;SDS011;9744;49.364;7.484;2024-03-08T06:20:50;48.42;;;26.45;;
19219;SDS011;9744;49.364;7.484;2024-03-08T06:23:20;50.50;;;24.00;;
19219;SDS011;9744;49.364;7.484;2024-03-08T06:25:50;41.78;;;22.05;;
19219;SDS011;9744;49.364;7.484;2024-03-08T06:28:18;40.53;;;20.15;;
19219;SDS011;9744;49.364;7.484;2024-03-08T06:30:46;42.28;;;20.60;;
19219;SDS011;9744;49.364;7.484;2024-03-08T06:33:13;40.75;;;21.27;;
19219;SDS011;9744;49.364;7.484;2024-03-08T06:35:43;42.40;;;20.13;;
19219;SDS011;9744;49.364;7.484;2024-03-08T06:38:12;38.90;;;20.20;;
19219;SDS011;9744;49.364;7.484;2024-03-08T06:40:43;44.97;;;22.02;;
19219;SDS011;9744;49.364;7.484;2024-03-08T06:43:15;40.22;;;20.85;;
19219;SDS011;9744;49.364;7.484;2024-03-08T06:45:44;41.22;;;21.67;;
19219;SDS011;9744;49.364;7.484;2024-03-08T06:48:14;44.50;;;21.05;;
19219;SDS011;9744;49.364;7.484;2024-03-08T06:50:44;46.10;;;22.88;;
19219;SDS011;9744;49.364;7.484;2024-03-08T06:53:12;40.70;;;20.73;;
19219;SDS011;9744;49.364;7.484;2024-03-08T06:55:40;40.67;;;20.88;;
19219;SDS011;9744;49.364;7.484;2024-03-08T06:58:13;58.75;;;27.70;;
19219;SDS011;9744;49.364;7.484;2024-03-08T07:00:42;44.45;;;22.92;;
19219;SDS011;9744;49.364;7.484;2024-03-08T07:03:09;48.35;;;22.73;;
19219;SDS011;9744;49.364;7.484;2024-03-08T07:05:44;41.17;;;19.80;;
19219;SDS011;9744;49.364;7.484;2024-03-08T07:08:12;43.13;;;20.83;;
19219;SDS011;9744;49.364;7.484;2024-03-08T07:10:42;39.47;;;20.58;;
19219;SDS011;9744;49.364;7.484;2024-03-08T07:13:10;41.38;;;20.58;;
19219;SDS011;9744;49.364;7.484;2024-03-08T07:15:39;49.25;;;23.00;;
19219;SDS011;9744;49.364;7.484;2024-03-08T07:18:06;43.90;;;22.10;;
19219;SDS011;9744;49.364;7.484;2024-03-08T07:20:41;47.45;;;21.40;;
19219;SDS011;9744;49.364;7.484;2024-03-08T07:23:11;45.90;;;23.40;;
19219;SDS011;9744;49.364;7.484;2024-03-08T07:25:59;47.65;;;22.60;;
19219;SDS011;9744;49.364;7.484;2024-03-08T07:28:26;39.03;;;20.08;;
19219;SDS011;9744;49.364;7.484;2024-03-08T07:30:56;49.05;;;24.15;;
19219;SDS011;9744;49.364;7.484;2024-03-08T07:33:38;58.45;;;27.88;;
19219;SDS011;9744;49.364;7.484;2024-03-08T07:36:07;48.15;;;22.35;;
19219;SDS011;9744;49.364;7.484;2024-03-08T07:41:27;41.00;;;20.95;;
19219;SDS011;9744;49.364;7.484;2024-03-08T07:43:55;38.80;;;19.77;;
19219;SDS011;9744;49.364;7.484;2024-03-08T07:46:23;38.40;;;20.63;;
19219;SDS011;9744;49.364;7.484;2024-03-08T07:48:51;41.85;;;21.70;;
19219;SDS011;9744;49.364;7.484;2024-03-08T07:51:51;38.20;;;19.65;;
19219;SDS011;9744;49.364;7.484;2024-03-08T07:57:15;44.83;;;22.35;;
19219;SDS011;9744;49.364;7.484;2024-03-08T07:59:43;54.60;;;26.27;;
19219;SDS011;9744;49.364;7.484;2024-03-08T08:02:12;44.63;;;22.23;;
19219;SDS011;9744;49.364;7.484;2024-03-08T08:04:40;37.28;;;20.35;;
19219;SDS011;9744;49.364;7.484;2024-03-08T08:07:10;38.83;;;20.08;;
19219;SDS011;9744;49.364;7.484;2024-03-08T08:09:40;43.42;;;21.27;;
19219;SDS011;9744;49.364;7.484;2024-03-08T08:12:08;43.42;;;21.23;;
19219;SDS011;9744;49.364;7.484;2024-03-08T08:14:39;37.35;;;19.63;;
19219;SDS011;9744;49.364;7.484;2024-03-08T08:19:57;36.60;;;18.88;;
19219;SDS011;9744;49.364;7.484;2024-03-08T08:22:25;41.05;;;20.13;;
19219;SDS011;9744;49.364;7.484;2024-03-08T08:24:53;37.50;;;19.63;;
19219;SDS011;9744;49.364;7.484;2024-03-08T08:27:22;35.25;;;18.92;;
19219;SDS011;9744;49.364;7.484;2024-03-08T08:29:53;34.38;;;19.15;;
19219;SDS011;9744;49.364;7.484;2024-03-08T08:32:21;35.72;;;18.60;;
19219;SDS011;9744;49.364;7.484;2024-03-08T08:34:50;36.03;;;19.45;;
19219;SDS011;9744;49.364;7.484;2024-03-08T08:37:18;38.60;;;19.75;;
19219;SDS011;9744;49.364;7.484;2024-03-08T09:02:28;36.58;;;19.00;;
19219;SDS011;9744;49.364;7.484;2024-03-08T09:04:56;36.92;;;19.45;;
19219;SDS011;9744;49.364;7.484;2024-03-08T09:07:23;37.88;;;19.55;;
19219;SDS011;9744;49.364;7.484;2024-03-08T09:09:51;51.22;;;25.42;;
19219;SDS011;9744;49.364;7.484;2024-03-08T09:12:26;81.35;;;38.00;;
19219;SDS011;9744;49.364;7.484;2024-03-08T09:23:56;33.22;;;18.58;;
19219;SDS011;9744;49.364;7.484;2024-03-08T09:26:23;33.13;;;19.88;;
19219;SDS011;9744;49.364;7.484;2024-03-08T09:28:52;57.47;;;29.30;;
19219;SDS011;9744;49.364;7.484;2024-03-08T09:31:20;67.43;;;33.75;;
19219;SDS011;9744;49.364;7.484;2024-03-08T09:33:47;34.55;;;18.70;;
19219;SDS011;9744;49.364;7.484;2024-03-08T09:36:14;37.70;;;19.10;;
19219;SDS011;9744;49.364;7.484;2024-03-08T09:38:42;44.17;;;21.65;;
19219;SDS011;9744;49.364;7.484;2024-03-08T09:41:12;33.42;;;19.33;;
19219;SDS011;9744;49.364;7.484;2024-03-08T09:43:40;34.55;;;19.02;;
19219;SDS011;9744;49.364;7.484;2024-03-08T09:46:07;43.78;;;21.52;;
19219;SDS011;9744;49.364;7.484;2024-03-08T09:48:36;39.28;;;18.33;;
19219;SDS011;9744;49.364;7.484;2024-03-08T09:51:06;39.22;;;21.33;;
19219;SDS011;9744;49.364;7.484;2024-03-08T09:53:38;30.83;;;17.67;;
19219;SDS011;9744;49.364;7.484;2024-03-08T09:56:07;34.28;;;18.80;;
19219;SDS011;9744;49.364;7.484;2024-03-08T09:58:37;35.47;;;19.52;;
19219;SDS011;9744;49.364;7.484;2024-03-08T10:01:19;34.63;;;18.48;;
19219;SDS011;9744;49.364;7.484;2024-03-08T10:03:48;30.98;;;17.77;;
19219;SDS011;9744;49.364;7.484;2024-03-08T10:06:15;32.75;;;17.45;;
19219;SDS011;9744;49.364;7.484;2024-03-08T10:08:43;30.73;;;18.20;;
19219;SDS011;9744;49.364;7.484;2024-03-08T10:11:11;26.83;;;16.67;;
19219;SDS011;9744;49.364;7.484;2024-03-08T10:13:40;33.65;;;18.50;;
19219;SDS011;9744;49.364;7.484;2024-03-08T10:16:08;34.20;;;17.40;;
19219;SDS011;9744;49.364;7.484;2024-03-08T10:18:35;28.67;;;16.52;;
19219;SDS011;9744;49.364;7.484;2024-03-08T10:21:03;28.60;;;16.00;;
19219;SDS011;9744;49.364;7.484;2024-03-08T10:23:32;27.85;;;15.88;;
19219;SDS011;9744;49.364;7.484;2024-03-08T10:26:09;29.65;;;17.25;;
19219;SDS011;9744;49.364;7.484;2024-03-08T10:28:41;29.73;;;17.38;;
19219;SDS011;9744;49.364;7.484;2024-03-08T10:31:09;28.02;;;16.20;;
19219;SDS011;9744;49.364;7.484;2024-03-08T10:33:36;27.17;;;16.05;;
19219;SDS011;9744;49.364;7.484;2024-03-08T10:36:05;28.77;;;16.27;;
19219;SDS011;9744;49.364;7.484;2024-03-08T10:38:35;27.73;;;16.52;;
19219;SDS011;9744;49.364;7.484;2024-03-08T10:41:04;31.45;;;16.27;;
19219;SDS011;9744;49.364;7.484;2024-03-08T10:43:34;27.08;;;16.00;;
19219;SDS011;9744;49.364;7.484;2024-03-08T10:46:15;24.23;;;15.20;;
19219;SDS011;9744;49.364;7.484;2024-03-08T10:48:48;23.48;;;14.65;;
19219;SDS011;9744;49.364;7.484;2024-03-08T10:51:16;27.92;;;16.67;;
19219;SDS011;9744;49.364;7.484;2024-03-08T10:53:45;25.48;;;15.10;;
19219;SDS011;9744;49.364;7.484;2024-03-08T10:56:14;28.45;;;15.68;;
19219;SDS011;9744;49.364;7.484;2024-03-08T10:58:43;30.15;;;16.60;;
19219;SDS011;9744;49.364;7.484;2024-03-08T11:01:10;26.63;;;15.85;;
19219;SDS011;9744;49.364;7.484;2024-03-08T11:03:45;25.20;;;14.65;;
19219;SDS011;9744;49.364;7.484;2024-03-08T11:06:19;27.05;;;16.13;;
19219;SDS011;9744;49.364;7.484;2024-03-08T11:08:50;24.85;;;15.15;;
19219;SDS011;9744;49.364;7.484;2024-03-08T11:11:24;27.23;;;16.80;;
19219;SDS011;9744;49.364;7.484;2024-03-08T11:13:58;26.85;;;16.67;;
19219;SDS011;9744;49.364;7.484;2024-03-08T11:16:38;32.17;;;16.40;;
19219;SDS011;9744;49.364;7.484;2024-03-08T11:19:24;26.85;;;16.63;;
19219;SDS011;9744;49.364;7.484;2024-03-08T11:21:58;28.70;;;17.08;;
19219;SDS011;9744;49.364;7.484;2024-03-08T11:24:26;31.08;;;17.95;;
19219;SDS011;9744;49.364;7.484;2024-03-08T11:26:56;37.05;;;22.25;;
19219;SDS011;9744;49.364;7.484;2024-03-08T11:29:33;32.75;;;19.08;;
19219;SDS011;9744;49.364;7.484;2024-03-08T11:32:06;28.55;;;16.60;;
19219;SDS011;9744;49.364;7.484;2024-03-08T11:34:35;28.98;;;15.10;;
19219;SDS011;9744;49.364;7.484;2024-03-08T11:37:03;23.63;;;15.13;;
19219;SDS011;9744;49.364;7.484;2024-03-08T11:39:35;28.35;;;16.92;;
19219;SDS011;9744;49.364;7.484;2024-03-08T11:42:04;23.45;;;14.68;;
19219;SDS011;9744;49.364;7.484;2024-03-08T11:44:32;25.35;;;15.10;;
19219;SDS011;9744;49.364;7.484;2024-03-08T11:47:01;24.02;;;15.90;;
19219;SDS011;9744;49.364;7.484;2024-03-08T11:49:31;28.45;;;16.55;;
19219;SDS011;9744;49.364;7.484;2024-03-08T11:51:59;55.83;;;29.85;;
19219;SDS011;9744;49.364;7.484;2024-03-08T11:54:28;30.30;;;18.83;;
19219;SDS011;9744;49.364;7.484;2024-03-08T11:56:55;28.83;;;17.70;;
19219;SDS011;9744;49.364;7.484;2024-03-08T11:59:26;30.05;;;18.05;;
19219;SDS011;9744;49.364;7.484;2024-03-08T12:02:02;26.20;;;16.13;;
19219;SDS011;9744;49.364;7.484;2024-03-08T12:04:31;25.98;;;16.38;;
19219;SDS011;9744;49.364;7.484;2024-03-08T12:06:59;26.40;;;15.73;;
19219;SDS011;9744;49.364;7.484;2024-03-08T12:09:33;27.95;;;17.48;;
19219;SDS011;9744;49.364;7.484;2024-03-08T12:12:02;25.08;;;16.27;;
19219;SDS011;9744;49.364;7.484;2024-03-08T12:14:32;26.80;;;15.48;;
19219;SDS011;9744;49.364;7.484;2024-03-08T12:17:03;25.50;;;15.55;;
19219;SDS011;9744;49.364;7.484;2024-03-08T12:19:31;28.65;;;16.70;;
19219;SDS011;9744;49.364;7.484;2024-03-08T12:22:06;25.27;;;15.35;;
19219;SDS011;9744;49.364;7.484;2024-03-08T12:24:35;24.75;;;15.80;;
19219;SDS011;9744;49.364;7.484;2024-03-08T12:27:17;23.88;;;15.55;;
19219;SDS011;9744;49.364;7.484;2024-03-08T12:29:45;25.52;;;15.45;;
19219;SDS011;9744;49.364;7.484;2024-03-08T12:32:14;43.28;;;23.40;;
19219;SDS011;9744;49.364;7.484;2024-03-08T12:34:42;41.50;;;24.25;;
19219;SDS011;9744;49.364;7.484;2024-03-08T12:37:11;26.45;;;16.73;;
19219;SDS011;9744;49.364;7.484;2024-03-08T12:39:40;25.45;;;16.05;;
19219;SDS011;9744;49.364;7.484;2024-03-08T12:42:11;23.80;;;15.05;;
19219;SDS011;9744;49.364;7.484;2024-03-08T12:44:38;24.98;;;14.40;;
19219;SDS011;9744;49.364;7.484;2024-03-08T12:47:08;25.60;;;14.90;;
19219;SDS011;9744;49.364;7.484;2024-03-08T12:49:37;22.15;;;14.10;;
19219;SDS011;9744;49.364;7.484;2024-03-08T12:52:09;22.88;;;13.85;;
19219;SDS011;9744;49.364;7.484;2024-03-08T12:54:37;26.42;;;14.23;;
19219;SDS011;9744;49.364;7.484;2024-03-08T12:57:04;22.50;;;14.63;;
19219;SDS011;9744;49.364;7.484;2024-03-08T12:59:33;25.33;;;14.38;;
19219;SDS011;9744;49.364;7.484;2024-03-08T13:02:00;27.35;;;14.57;;
19219;SDS011;9744;49.364;7.484;2024-03-08T13:04:27;23.85;;;15.00;;
19219;SDS011;9744;49.364;7.484;2024-03-08T13:06:58;23.75;;;14.60;;
19219;SDS011;9744;49.364;7.484;2024-03-08T13:09:26;23.85;;;14.90;;
19219;SDS011;9744;49.364;7.484;2024-03-08T13:11:54;25.75;;;15.10;;
19219;SDS011;9744;49.364;7.484;2024-03-08T13:14:24;22.92;;;14.60;;
19219;SDS011;9744;49.364;7.484;2024-03-08T13:16:51;23.33;;;14.88;;
19219;SDS011;9744;49.364;7.484;2024-03-08T13:19:22;24.23;;;15.18;;
19219;SDS011;9744;49.364;7.484;2024-03-08T13:21:49;24.60;;;15.90;;
19219;SDS011;9744;49.364;7.484;2024-03-08T13:24:18;23.35;;;15.02;;
19219;SDS011;9744;49.364;7.484;2024-03-08T13:26:45;22.45;;;13.70;;
19219;SDS011;9744;49.364;7.484;2024-03-08T13:29:14;23.90;;;14.30;;
19219;SDS011;9744;49.364;7.484;2024-03-08T13:31:43;22.23;;;14.27;;
19219;SDS011;9744;49.364;7.484;2024-03-08T13:34:12;22.52;;;14.27;;
19219;SDS011;9744;49.364;7.484;2024-03-08T13:36:40;23.40;;;14.88;;
19219;SDS011;9744;49.364;7.484;2024-03-08T13:39:09;23.05;;;14.55;;
19219;SDS011;9744;49.364;7.484;2024-03-08T13:41:41;24.63;;;15.45;;
19219;SDS011;9744;49.364;7.484;2024-03-08T13:44:10;22.88;;;15.13;;
19219;SDS011;9744;49.364;7.484;2024-03-08T13:46:37;22.45;;;14.45;;
19219;SDS011;9744;49.364;7.484;2024-03-08T13:49:05;25.08;;;14.82;;
19219;SDS011;9744;49.364;7.484;2024-03-08T13:51:35;23.60;;;14.00;;
19219;SDS011;9744;49.364;7.484;2024-03-08T13:54:02;22.13;;;14.02;;
19219;SDS011;9744;49.364;7.484;2024-03-08T13:56:32;21.98;;;14.05;;
19219;SDS011;9744;49.364;7.484;2024-03-08T13:59:00;24.80;;;15.57;;
19219;SDS011;9744;49.364;7.484;2024-03-08T14:01:28;22.17;;;14.77;;
19219;SDS011;9744;49.364;7.484;2024-03-08T14:03:55;25.05;;;14.55;;
19219;SDS011;9744;49.364;7.484;2024-03-08T14:06:22;29.90;;;18.25;;
19219;SDS011;9744;49.364;7.484;2024-03-08T14:08:51;26.27;;;16.05;;
19219;SDS011;9744;49.364;7.484;2024-03-08T14:11:18;30.70;;;18.15;;
19219;SDS011;9744;49.364;7.484;2024-03-08T14:13:46;23.70;;;15.20;;
19219;SDS011;9744;49.364;7.484;2024-03-08T14:16:14;23.60;;;14.52;;
19219;SDS011;9744;49.364;7.484;2024-03-08T14:18:42;24.55;;;15.38;;
19219;SDS011;9744;49.364;7.484;2024-03-08T14:21:09;20.98;;;14.05;;
19219;SDS011;9744;49.364;7.484;2024-03-08T14:23:36;25.75;;;15.38;;
19219;SDS011;9744;49.364;7.484;2024-03-08T14:26:04;22.83;;;14.63;;
19219;SDS011;9744;49.364;7.484;2024-03-08T14:28:32;24.63;;;15.27;;
19219;SDS011;9744;49.364;7.484;2024-03-08T14:31:02;24.42;;;15.05;;
19219;SDS011;9744;49.364;7.484;2024-03-08T14:33:32;27.30;;;16.50;;
19219;SDS011;9744;49.364;7.484;2024-03-08T14:36:00;29.27;;;17.08;;
19219;SDS011;9744;49.364;7.484;2024-03-08T14:38:27;24.52;;;15.30;;
19219;SDS011;9744;49.364;7.484;2024-03-08T14:40:55;20.60;;;13.80;;
19219;SDS011;9744;49.364;7.484;2024-03-08T14:43:22;24.00;;;14.40;;
19219;SDS011;9744;49.364;7.484;2024-03-08T14:45:49;34.05;;;21.52;;
19219;SDS011;9744;49.364;7.484;2024-03-08T14:48:17;53.92;;;30.35;;
19219;SDS011;9744;49.364;7.484;2024-03-08T14:50:47;57.28;;;31.10;;
19219;SDS011;9744;49.364;7.484;2024-03-08T14:53:16;52.78;;;30.00;;
19219;SDS011;9744;49.364;7.484;2024-03-08T14:55:43;25.05;;;15.93;;
19219;SDS011;9744;49.364;7.484;2024-03-08T14:58:12;27.23;;;13.82;;
19219;SDS011;9744;49.364;7.484;2024-03-08T15:00:39;26.90;;;14.73;;
19219;SDS011;9744;49.364;7.484;2024-03-08T15:03:07;24.17;;;15.13;;
19219;SDS011;9744;49.364;7.484;2024-03-08T15:05:38;23.27;;;15.13;;
19219;SDS011;9744;49.364;7.484;2024-03-08T15:08:09;23.95;;;15.18;;
19219;SDS011;9744;49.364;7.484;2024-03-08T15:10:36;24.27;;;14.73;;
19219;SDS011;9744;49.364;7.484;2024-03-08T15:13:05;26.17;;;15.18;;
19219;SDS011;9744;49.364;7.484;2024-03-08T15:15:46;28.85;;;16.08;;
19219;SDS011;9744;49.364;7.484;2024-03-08T15:18:20;23.92;;;14.52;;
19219;SDS011;9744;49.364;7.484;2024-03-08T15:20:51;25.65;;;14.93;;
19219;SDS011;9744;49.364;7.484;2024-03-08T15:23:20;21.92;;;14.50;;
19219;SDS011;9744;49.364;7.484;2024-03-08T15:25:48;27.52;;;16.27;;
19219;SDS011;9744;49.364;7.484;2024-03-08T15:28:15;26.48;;;16.45;;
19219;SDS011;9744;49.364;7.484;2024-03-08T15:30:45;27.88;;;15.73;;
19219;SDS011;9744;49.364;7.484;2024-03-08T15:33:19;27.30;;;14.75;;
19219;SDS011;9744;49.364;7.484;2024-03-08T15:35:49;28.08;;;15.55;;
19219;SDS011;9744;49.364;7.484;2024-03-08T15:38:24;28.55;;;16.27;;
19219;SDS011;9744;49.364;7.484;2024-03-08T15:40:52;28.33;;;15.55;;
19219;SDS011;9744;49.364;7.484;2024-03-08T15:43:20;29.98;;;17.67;;
19219;SDS011;9744;49.364;7.484;2024-03-08T15:45:47;24.50;;;15.70;;
19219;SDS011;9744;49.364;7.484;2024-03-08T15:48:15;68.10;;;33.22;;
19219;SDS011;9744;49.364;7.484;2024-03-08T15:50:42;45.55;;;24.23;;
19219;SDS011;9744;49.364;7.484;2024-03-08T15:53:09;29.67;;;16.92;;
19219;SDS011;9744;49.364;7.484;2024-03-08T15:55:39;29.40;;;16.38;;
19219;SDS011;9744;49.364;7.484;2024-03-08T15:58:09;25.52;;;15.75;;
19219;SDS011;9744;49.364;7.484;2024-03-08T16:00:36;28.92;;;16.17;;
19219;SDS011;9744;49.364;7.484;2024-03-08T16:03:11;30.35;;;16.45;;
19219;SDS011;9744;49.364;7.484;2024-03-08T16:05:40;29.58;;;16.20;;
19219;SDS011;9744;49.364;7.484;2024-03-08T16:08:09;30.10;;;16.30;;
19219;SDS011;9744;49.364;7.484;2024-03-08T16:10:42;37.17;;;15.90;;
19219;SDS011;9744;49.364;7.484;2024-03-08T16:13:12;36.00;;;19.35;;
19219;SDS011;9744;49.364;7.484;2024-03-08T16:15:41;29.75;;;16.52;;
19219;SDS011;9744;49.364;7.484;2024-03-08T16:18:10;34.08;;;18.13;;
19219;SDS011;9744;49.364;7.484;2024-03-08T16:20:38;28.90;;;16.95;;
19219;SDS011;9744;49.364;7.484;2024-03-08T16:23:08;33.92;;;18.02;;
19219;SDS011;9744;49.364;7.484;2024-03-08T16:25:36;30.13;;;17.63;;
19219;SDS011;9744;49.364;7.484;2024-03-08T16:28:05;32.35;;;17.58;;
19219;SDS011;9744;49.364;7.484;2024-03-08T16:30:34;33.60;;;17.75;;
19219;SDS011;9744;49.364;7.484;2024-03-08T16:33:01;29.52;;;17.30;;
19219;SDS011;9744;49.364;7.484;2024-03-08T16:35:30;32.92;;;18.05;;
19219;SDS011;9744;49.364;7.484;2024-03-08T16:37:57;32.70;;;17.50;;
19219;SDS011;9744;49.364;7.484;2024-03-08T16:40:24;33.53;;;17.98;;
19219;SDS011;9744;49.364;7.484;2024-03-08T16:42:53;34.17;;;17.58;;
19219;SDS011;9744;49.364;7.484;2024-03-08T16:45:23;33.17;;;18.00;;
19219;SDS011;9744;49.364;7.484;2024-03-08T16:47:51;34.20;;;18.38;;
19219;SDS011;9744;49.364;7.484;2024-03-08T16:50:19;35.42;;;18.35;;
19219;SDS011;9744;49.364;7.484;2024-03-08T16:52:49;31.52;;;17.67;;
19219;SDS011;9744;49.364;7.484;2024-03-08T16:55:17;29.38;;;17.73;;
19219;SDS011;9744;49.364;7.484;2024-03-08T16:57:45;33.78;;;18.27;;
19219;SDS011;9744;49.364;7.484;2024-03-08T17:00:15;34.80;;;19.00;;
19219;SDS011;9744;49.364;7.484;2024-03-08T17:02:48;32.47;;;18.67;;
19219;SDS011;9744;49.364;7.484;2024-03-08T17:05:17;36.72;;;18.40;;
19219;SDS011;9744;49.364;7.484;2024-03-08T17:07:45;32.03;;;17.67;;
19219;SDS011;9744;49.364;7.484;2024-03-08T17:10:13;34.63;;;18.75;;
19219;SDS011;9744;49.364;7.484;2024-03-08T17:12:44;35.40;;;19.42;;
19219;SDS011;9744;49.364;7.484;2024-03-08T17:15:13;33.63;;;19.27;;
19219;SDS011;9744;49.364;7.484;2024-03-08T17:17:42;46.88;;;23.10;;
19219;SDS011;9744;49.364;7.484;2024-03-08T17:20:13;82.35;;;34.03;;
19219;SDS011;9744;49.364;7.484;2024-03-08T17:22:47;102.90;;;37.80;;